sensor_id;sensor_type;location;lat;lon;timestamp;P1;durP1;ratioP1;P2;durP2;ratioP2
31206;SDS011;17834;52.992;8.856;2022-08-21T00:01:14;5.72;;;2.35;;
31206;SDS011;17834;52.992;8.856;2022-08-21T00:03:41;4.15;;;2.30;;
31206;SDS011;17834;52.992;8.856;2022-08-21T00:06:07;4.18;;;2.50;;
31206;SDS011;17834;52.992;8.856;2022-08-21T00:08:33;6.20;;;3.20;;
31206;SDS011;17834;52.992;8.856;2022-08-21T00:10:59;7.18;;;2.42;;
31206;SDS011;17834;52.992;8.856;2022-08-21T00:13:25;5.65;;;2.80;;
31206;SDS011;17834;52.992;8.856;2022-08-21T00:15:51;6.97;;;2.53;;
31206;SDS011;17834;52.992;8.856;2022-08-21T00:18:18;4.50;;;2.20;;
31206;SDS011;17834;52.992;8.856;2022-08-21T00:20:44;3.95;;;2.08;;
31206;SDS011;17834;52.992;8.856;2022-08-21T00:23:10;10.93;;;2.28;;
31206;SDS011;17834;52.992;8.856;2022-08-21T00:25:37;5.55;;;2.47;;
31206;SDS011;17834;52.992;8.856;2022-08-21T00:28:03;4.60;;;2.38;;
31206;SDS011;17834;52.992;8.856;2022-08-21T00:30:31;6.97;;;2.55;;
31206;SDS011;17834;52.992;8.856;2022-08-21T00:32:58;5.18;;;2.70;;
31206;SDS011;17834;52.992;8.856;2022-08-21T00:35:31;6.88;;;2.78;;
31206;SDS011;17834;52.992;8.856;2022-08-21T00:37:58;3.42;;;2.40;;
31206;SDS011;17834;52.992;8.856;2022-08-21T00:40:27;7.57;;;2.75;;
31206;SDS011;17834;52.992;8.856;2022-08-21T00:42:53;6.72;;;3.20;;
31206;SDS011;17834;52.992;8.856;2022-08-21T00:45:21;6.18;;;2.50;;
31206;SDS011;17834;52.992;8.856;2022-08-21T00:47:47;5.75;;;2.55;;
31206;SDS011;17834;52.992;8.856;2022-08-21T00:50:13;4.70;;;2.30;;
31206;SDS011;17834;52.992;8.856;2022-08-21T00:52:39;5.00;;;2.30;;
31206;SDS011;17834;52.992;8.856;2022-08-21T00:55:07;6.78;;;2.58;;
31206;SDS011;17834;52.992;8.856;2022-08-21T00:57:36;5.10;;;2.90;;
31206;SDS011;17834;52.992;8.856;2022-08-21T01:00:07;5.45;;;2.65;;
31206;SDS011;17834;52.992;8.856;2022-08-21T01:02:33;8.05;;;2.65;;
31206;SDS011;17834;52.992;8.856;2022-08-21T01:04:59;7.97;;;2.97;;
31206;SDS011;17834;52.992;8.856;2022-08-21T01:07:25;5.32;;;2.58;;
31206;SDS011;17834;52.992;8.856;2022-08-21T01:09:51;6.90;;;2.80;;
31206;SDS011;17834;52.992;8.856;2022-08-21T01:12:17;6.75;;;3.10;;
31206;SDS011;17834;52.992;8.856;2022-08-21T01:14:44;7.45;;;3.13;;
31206;SDS011;17834;52.992;8.856;2022-08-21T01:17:11;7.18;;;3.00;;
31206;SDS011;17834;52.992;8.856;2022-08-21T01:19:38;5.13;;;3.03;;
31206;SDS011;17834;52.992;8.856;2022-08-21T01:22:05;5.43;;;2.50;;
31206;SDS011;17834;52.992;8.856;2022-08-21T01:24:31;4.65;;;2.50;;
31206;SDS011;17834;52.992;8.856;2022-08-21T01:26:57;9.48;;;3.13;;
31206;SDS011;17834;52.992;8.856;2022-08-21T01:29:34;5.85;;;2.80;;
31206;SDS011;17834;52.992;8.856;2022-08-21T01:32:08;6.30;;;3.15;;
31206;SDS011;17834;52.992;8.856;2022-08-21T01:34:36;6.80;;;2.95;;
31206;SDS011;17834;52.992;8.856;2022-08-21T01:37:03;7.55;;;3.00;;
31206;SDS011;17834;52.992;8.856;2022-08-21T01:39:29;6.22;;;2.92;;
31206;SDS011;17834;52.992;8.856;2022-08-21T01:41:55;6.45;;;3.53;;
31206;SDS011;17834;52.992;8.856;2022-08-21T01:44:21;6.65;;;3.00;;
31206;SDS011;17834;52.992;8.856;2022-08-21T01:46:47;5.53;;;3.03;;
31206;SDS011;17834;52.992;8.856;2022-08-21T01:49:14;6.10;;;2.50;;
31206;SDS011;17834;52.992;8.856;2022-08-21T01:51:40;5.22;;;2.63;;
31206;SDS011;17834;52.992;8.856;2022-08-21T01:54:06;5.28;;;2.70;;
31206;SDS011;17834;52.992;8.856;2022-08-21T01:56:39;5.47;;;3.38;;
31206;SDS011;17834;52.992;8.856;2022-08-21T01:59:06;6.43;;;2.80;;
31206;SDS011;17834;52.992;8.856;2022-08-21T02:01:32;4.60;;;2.55;;
31206;SDS011;17834;52.992;8.856;2022-08-21T02:03:58;4.82;;;2.33;;
31206;SDS011;17834;52.992;8.856;2022-08-21T02:06:24;7.25;;;2.72;;
31206;SDS011;17834;52.992;8.856;2022-08-21T02:08:51;8.45;;;3.38;;
31206;SDS011;17834;52.992;8.856;2022-08-21T02:11:17;4.55;;;2.55;;
31206;SDS011;17834;52.992;8.856;2022-08-21T02:13:43;4.53;;;2.78;;
31206;SDS011;17834;52.992;8.856;2022-08-21T02:16:09;5.07;;;3.00;;
31206;SDS011;17834;52.992;8.856;2022-08-21T02:18:35;7.65;;;2.80;;
31206;SDS011;17834;52.992;8.856;2022-08-21T02:21:02;8.15;;;3.45;;
31206;SDS011;17834;52.992;8.856;2022-08-21T02:23:28;6.32;;;3.15;;
31206;SDS011;17834;52.992;8.856;2022-08-21T02:25:56;6.20;;;3.00;;
31206;SDS011;17834;52.992;8.856;2022-08-21T02:28:22;6.00;;;2.78;;
31206;SDS011;17834;52.992;8.856;2022-08-21T02:30:48;6.43;;;2.63;;
31206;SDS011;17834;52.992;8.856;2022-08-21T02:33:14;8.65;;;2.92;;
31206;SDS011;17834;52.992;8.856;2022-08-21T02:35:40;3.88;;;2.58;;
31206;SDS011;17834;52.992;8.856;2022-08-21T02:38:08;4.18;;;2.40;;
31206;SDS011;17834;52.992;8.856;2022-08-21T02:40:35;6.00;;;2.80;;
31206;SDS011;17834;52.992;8.856;2022-08-21T02:43:02;5.25;;;2.83;;
31206;SDS011;17834;52.992;8.856;2022-08-21T02:45:29;5.70;;;2.45;;
31206;SDS011;17834;52.992;8.856;2022-08-21T02:47:59;5.45;;;2.70;;
31206;SDS011;17834;52.992;8.856;2022-08-21T02:50:26;3.35;;;2.20;;
31206;SDS011;17834;52.992;8.856;2022-08-21T02:52:53;7.07;;;3.10;;
31206;SDS011;17834;52.992;8.856;2022-08-21T02:55:19;6.22;;;2.55;;
31206;SDS011;17834;52.992;8.856;2022-08-21T02:57:46;4.47;;;2.50;;
31206;SDS011;17834;52.992;8.856;2022-08-21T03:00:13;9.07;;;2.80;;
31206;SDS011;17834;52.992;8.856;2022-08-21T03:02:39;5.00;;;2.45;;
31206;SDS011;17834;52.992;8.856;2022-08-21T03:05:06;3.72;;;2.30;;
31206;SDS011;17834;52.992;8.856;2022-08-21T03:07:32;4.95;;;2.50;;
31206;SDS011;17834;52.992;8.856;2022-08-21T03:09:59;3.50;;;2.25;;
31206;SDS011;17834;52.992;8.856;2022-08-21T03:12:25;5.28;;;2.50;;
31206;SDS011;17834;52.992;8.856;2022-08-21T03:14:51;4.05;;;2.50;;
31206;SDS011;17834;52.992;8.856;2022-08-21T03:17:17;4.38;;;2.75;;
31206;SDS011;17834;52.992;8.856;2022-08-21T03:19:43;4.50;;;2.40;;
31206;SDS011;17834;52.992;8.856;2022-08-21T03:22:09;7.63;;;2.42;;
31206;SDS011;17834;52.992;8.856;2022-08-21T03:24:35;7.30;;;2.60;;
31206;SDS011;17834;52.992;8.856;2022-08-21T03:27:01;5.35;;;2.42;;
31206;SDS011;17834;52.992;8.856;2022-08-21T03:29:27;3.72;;;2.60;;
31206;SDS011;17834;52.992;8.856;2022-08-21T03:31:53;6.70;;;2.67;;
31206;SDS011;17834;52.992;8.856;2022-08-21T03:34:19;5.85;;;2.75;;
31206;SDS011;17834;52.992;8.856;2022-08-21T03:36:46;6.60;;;3.00;;
31206;SDS011;17834;52.992;8.856;2022-08-21T03:39:12;5.60;;;2.65;;
31206;SDS011;17834;52.992;8.856;2022-08-21T03:41:38;6.18;;;2.10;;
31206;SDS011;17834;52.992;8.856;2022-08-21T03:44:04;5.50;;;2.72;;
31206;SDS011;17834;52.992;8.856;2022-08-21T03:46:30;5.38;;;2.58;;
31206;SDS011;17834;52.992;8.856;2022-08-21T03:48:56;6.55;;;2.03;;
31206;SDS011;17834;52.992;8.856;2022-08-21T03:51:22;4.00;;;2.33;;
31206;SDS011;17834;52.992;8.856;2022-08-21T03:53:48;4.57;;;2.20;;
31206;SDS011;17834;52.992;8.856;2022-08-21T03:56:14;3.85;;;2.08;;
31206;SDS011;17834;52.992;8.856;2022-08-21T03:58:41;5.45;;;2.35;;
31206;SDS011;17834;52.992;8.856;2022-08-21T04:01:07;5.45;;;2.47;;
31206;SDS011;17834;52.992;8.856;2022-08-21T04:03:34;9.20;;;2.67;;
31206;SDS011;17834;52.992;8.856;2022-08-21T04:06:01;9.35;;;3.85;;
31206;SDS011;17834;52.992;8.856;2022-08-21T04:08:26;5.57;;;3.30;;
31206;SDS011;17834;52.992;8.856;2022-08-21T04:10:53;6.75;;;3.05;;
31206;SDS011;17834;52.992;8.856;2022-08-21T04:13:20;6.05;;;3.33;;
31206;SDS011;17834;52.992;8.856;2022-08-21T04:15:46;4.63;;;2.45;;
31206;SDS011;17834;52.992;8.856;2022-08-21T04:18:13;6.45;;;2.45;;
31206;SDS011;17834;52.992;8.856;2022-08-21T04:20:39;5.88;;;2.30;;
31206;SDS011;17834;52.992;8.856;2022-08-21T04:23:06;6.15;;;2.30;;
31206;SDS011;17834;52.992;8.856;2022-08-21T04:25:32;3.47;;;2.03;;
31206;SDS011;17834;52.992;8.856;2022-08-21T04:27:58;3.55;;;2.40;;
31206;SDS011;17834;52.992;8.856;2022-08-21T04:30:24;5.53;;;2.40;;
31206;SDS011;17834;52.992;8.856;2022-08-21T04:32:50;4.38;;;2.30;;
31206;SDS011;17834;52.992;8.856;2022-08-21T04:35:20;4.65;;;2.70;;
31206;SDS011;17834;52.992;8.856;2022-08-21T04:37:46;8.10;;;2.63;;
31206;SDS011;17834;52.992;8.856;2022-08-21T04:40:13;4.95;;;2.70;;
31206;SDS011;17834;52.992;8.856;2022-08-21T04:42:43;4.43;;;2.55;;
31206;SDS011;17834;52.992;8.856;2022-08-21T04:45:14;5.45;;;2.85;;
31206;SDS011;17834;52.992;8.856;2022-08-21T04:47:40;6.22;;;2.78;;
31206;SDS011;17834;52.992;8.856;2022-08-21T04:50:06;4.65;;;2.50;;
31206;SDS011;17834;52.992;8.856;2022-08-21T04:52:32;7.53;;;2.67;;
31206;SDS011;17834;52.992;8.856;2022-08-21T04:54:58;5.43;;;2.30;;
31206;SDS011;17834;52.992;8.856;2022-08-21T04:57:26;6.32;;;2.65;;
31206;SDS011;17834;52.992;8.856;2022-08-21T04:59:52;5.00;;;2.60;;
31206;SDS011;17834;52.992;8.856;2022-08-21T05:02:18;4.78;;;2.47;;
31206;SDS011;17834;52.992;8.856;2022-08-21T05:04:48;6.15;;;2.72;;
31206;SDS011;17834;52.992;8.856;2022-08-21T05:07:17;7.50;;;3.10;;
31206;SDS011;17834;52.992;8.856;2022-08-21T05:09:44;7.63;;;3.15;;
31206;SDS011;17834;52.992;8.856;2022-08-21T05:12:10;5.43;;;2.70;;
31206;SDS011;17834;52.992;8.856;2022-08-21T05:14:36;3.85;;;2.30;;
31206;SDS011;17834;52.992;8.856;2022-08-21T05:17:02;4.20;;;2.47;;
31206;SDS011;17834;52.992;8.856;2022-08-21T05:19:29;4.97;;;2.70;;
31206;SDS011;17834;52.992;8.856;2022-08-21T05:21:55;4.85;;;2.92;;
31206;SDS011;17834;52.992;8.856;2022-08-21T05:24:21;6.35;;;2.45;;
31206;SDS011;17834;52.992;8.856;2022-08-21T05:26:47;9.23;;;3.35;;
31206;SDS011;17834;52.992;8.856;2022-08-21T05:29:13;6.57;;;2.70;;
31206;SDS011;17834;52.992;8.856;2022-08-21T05:31:39;5.35;;;2.55;;
31206;SDS011;17834;52.992;8.856;2022-08-21T05:34:06;5.22;;;2.42;;
31206;SDS011;17834;52.992;8.856;2022-08-21T05:36:32;4.30;;;2.47;;
31206;SDS011;17834;52.992;8.856;2022-08-21T05:38:58;7.78;;;3.08;;
31206;SDS011;17834;52.992;8.856;2022-08-21T05:41:24;5.68;;;2.97;;
31206;SDS011;17834;52.992;8.856;2022-08-21T05:43:50;5.63;;;2.45;;
31206;SDS011;17834;52.992;8.856;2022-08-21T05:46:16;3.83;;;2.38;;
31206;SDS011;17834;52.992;8.856;2022-08-21T05:48:42;7.70;;;2.45;;
31206;SDS011;17834;52.992;8.856;2022-08-21T05:51:09;6.18;;;3.13;;
31206;SDS011;17834;52.992;8.856;2022-08-21T05:53:36;3.65;;;2.45;;
31206;SDS011;17834;52.992;8.856;2022-08-21T05:56:03;8.40;;;2.78;;
31206;SDS011;17834;52.992;8.856;2022-08-21T05:58:30;6.05;;;2.42;;
31206;SDS011;17834;52.992;8.856;2022-08-21T06:00:57;8.40;;;2.92;;
31206;SDS011;17834;52.992;8.856;2022-08-21T06:03:25;4.70;;;2.67;;
31206;SDS011;17834;52.992;8.856;2022-08-21T06:05:51;4.93;;;2.80;;
31206;SDS011;17834;52.992;8.856;2022-08-21T06:08:18;6.82;;;3.83;;
31206;SDS011;17834;52.992;8.856;2022-08-21T06:10:45;7.82;;;3.85;;
31206;SDS011;17834;52.992;8.856;2022-08-21T06:13:11;6.00;;;3.67;;
31206;SDS011;17834;52.992;8.856;2022-08-21T06:15:37;11.52;;;4.28;;
31206;SDS011;17834;52.992;8.856;2022-08-21T06:18:03;6.43;;;3.60;;
31206;SDS011;17834;52.992;8.856;2022-08-21T06:20:29;7.85;;;4.28;;
31206;SDS011;17834;52.992;8.856;2022-08-21T06:22:56;7.70;;;4.80;;
31206;SDS011;17834;52.992;8.856;2022-08-21T06:25:22;6.50;;;4.18;;
31206;SDS011;17834;52.992;8.856;2022-08-21T06:27:49;5.95;;;3.55;;
31206;SDS011;17834;52.992;8.856;2022-08-21T06:30:15;7.20;;;3.45;;
31206;SDS011;17834;52.992;8.856;2022-08-21T06:32:41;8.07;;;3.80;;
31206;SDS011;17834;52.992;8.856;2022-08-21T06:35:07;8.23;;;4.13;;
31206;SDS011;17834;52.992;8.856;2022-08-21T06:37:33;11.43;;;3.90;;
31206;SDS011;17834;52.992;8.856;2022-08-21T06:39:59;6.35;;;3.97;;
31206;SDS011;17834;52.992;8.856;2022-08-21T06:42:25;10.57;;;4.68;;
31206;SDS011;17834;52.992;8.856;2022-08-21T06:44:54;9.48;;;4.35;;
31206;SDS011;17834;52.992;8.856;2022-08-21T06:47:22;9.13;;;4.07;;
31206;SDS011;17834;52.992;8.856;2022-08-21T06:49:48;10.15;;;5.00;;
31206;SDS011;17834;52.992;8.856;2022-08-21T06:52:13;7.70;;;4.65;;
31206;SDS011;17834;52.992;8.856;2022-08-21T06:54:39;16.88;;;5.82;;
31206;SDS011;17834;52.992;8.856;2022-08-21T06:57:06;11.45;;;5.93;;
31206;SDS011;17834;52.992;8.856;2022-08-21T06:59:32;11.30;;;4.78;;
31206;SDS011;17834;52.992;8.856;2022-08-21T07:01:58;10.95;;;4.53;;
31206;SDS011;17834;52.992;8.856;2022-08-21T07:04:24;12.35;;;5.85;;
31206;SDS011;17834;52.992;8.856;2022-08-21T07:06:50;12.30;;;5.63;;
31206;SDS011;17834;52.992;8.856;2022-08-21T07:09:16;11.20;;;5.43;;
31206;SDS011;17834;52.992;8.856;2022-08-21T07:11:43;9.35;;;4.70;;
31206;SDS011;17834;52.992;8.856;2022-08-21T07:14:10;7.47;;;4.10;;
31206;SDS011;17834;52.992;8.856;2022-08-21T07:16:36;12.68;;;5.43;;
31206;SDS011;17834;52.992;8.856;2022-08-21T07:19:02;15.48;;;4.72;;
31206;SDS011;17834;52.992;8.856;2022-08-21T07:21:28;12.00;;;5.53;;
31206;SDS011;17834;52.992;8.856;2022-08-21T07:23:54;10.65;;;4.75;;
31206;SDS011;17834;52.992;8.856;2022-08-21T07:26:20;12.65;;;4.93;;
31206;SDS011;17834;52.992;8.856;2022-08-21T07:28:47;11.73;;;4.30;;
31206;SDS011;17834;52.992;8.856;2022-08-21T07:31:14;6.90;;;3.83;;
31206;SDS011;17834;52.992;8.856;2022-08-21T07:33:40;10.60;;;3.55;;
31206;SDS011;17834;52.992;8.856;2022-08-21T07:36:06;9.32;;;3.72;;
31206;SDS011;17834;52.992;8.856;2022-08-21T07:38:33;9.60;;;3.10;;
31206;SDS011;17834;52.992;8.856;2022-08-21T07:40:59;12.57;;;3.47;;
31206;SDS011;17834;52.992;8.856;2022-08-21T07:43:26;5.72;;;2.20;;
31206;SDS011;17834;52.992;8.856;2022-08-21T07:45:52;8.40;;;2.83;;
31206;SDS011;17834;52.992;8.856;2022-08-21T07:48:19;8.48;;;2.65;;
31206;SDS011;17834;52.992;8.856;2022-08-21T07:50:45;8.23;;;2.60;;
31206;SDS011;17834;52.992;8.856;2022-08-21T07:53:11;7.25;;;2.20;;
31206;SDS011;17834;52.992;8.856;2022-08-21T07:55:37;9.50;;;2.70;;
31206;SDS011;17834;52.992;8.856;2022-08-21T07:58:03;7.95;;;2.78;;
31206;SDS011;17834;52.992;8.856;2022-08-21T08:00:30;5.75;;;2.08;;
31206;SDS011;17834;52.992;8.856;2022-08-21T08:02:56;6.63;;;2.20;;
31206;SDS011;17834;52.992;8.856;2022-08-21T08:05:23;7.32;;;2.22;;
31206;SDS011;17834;52.992;8.856;2022-08-21T08:07:49;5.90;;;2.00;;
31206;SDS011;17834;52.992;8.856;2022-08-21T08:10:15;6.28;;;2.15;;
31206;SDS011;17834;52.992;8.856;2022-08-21T08:12:42;5.22;;;2.05;;
31206;SDS011;17834;52.992;8.856;2022-08-21T08:15:10;6.88;;;2.03;;
31206;SDS011;17834;52.992;8.856;2022-08-21T08:17:36;2.63;;;1.50;;
31206;SDS011;17834;52.992;8.856;2022-08-21T08:20:03;5.82;;;1.92;;
31206;SDS011;17834;52.992;8.856;2022-08-21T08:22:29;4.22;;;1.35;;
31206;SDS011;17834;52.992;8.856;2022-08-21T08:24:55;4.90;;;1.48;;
31206;SDS011;17834;52.992;8.856;2022-08-21T08:27:21;3.47;;;1.40;;
31206;SDS011;17834;52.992;8.856;2022-08-21T08:29:48;5.35;;;1.42;;
31206;SDS011;17834;52.992;8.856;2022-08-21T08:32:14;3.45;;;1.05;;
31206;SDS011;17834;52.992;8.856;2022-08-21T08:34:40;4.55;;;1.13;;
31206;SDS011;17834;52.992;8.856;2022-08-21T08:37:07;7.15;;;1.42;;
31206;SDS011;17834;52.992;8.856;2022-08-21T08:39:34;2.80;;;1.63;;
31206;SDS011;17834;52.992;8.856;2022-08-21T08:44:29;4.65;;;1.45;;
31206;SDS011;17834;52.992;8.856;2022-08-21T08:46:55;7.20;;;1.90;;
31206;SDS011;17834;52.992;8.856;2022-08-21T08:49:34;4.70;;;1.67;;
31206;SDS011;17834;52.992;8.856;2022-08-21T08:54:33;5.20;;;1.90;;
31206;SDS011;17834;52.992;8.856;2022-08-21T08:57:00;5.80;;;1.90;;
31206;SDS011;17834;52.992;8.856;2022-08-21T08:59:33;3.60;;;1.65;;
31206;SDS011;17834;52.992;8.856;2022-08-21T09:02:01;3.53;;;1.50;;
31206;SDS011;17834;52.992;8.856;2022-08-21T09:04:27;7.90;;;1.63;;
31206;SDS011;17834;52.992;8.856;2022-08-21T09:09:51;6.60;;;1.70;;
31206;SDS011;17834;52.992;8.856;2022-08-21T09:12:39;6.53;;;2.30;;
31206;SDS011;17834;52.992;8.856;2022-08-21T09:20:23;6.25;;;2.35;;
31206;SDS011;17834;52.992;8.856;2022-08-21T09:25:24;5.15;;;1.92;;
31206;SDS011;17834;52.992;8.856;2022-08-21T09:27:51;11.10;;;1.83;;
31206;SDS011;17834;52.992;8.856;2022-08-21T09:30:17;8.38;;;1.70;;
31206;SDS011;17834;52.992;8.856;2022-08-21T09:32:45;7.38;;;1.73;;
31206;SDS011;17834;52.992;8.856;2022-08-21T09:35:18;5.88;;;2.10;;
31206;SDS011;17834;52.992;8.856;2022-08-21T09:37:55;8.85;;;2.00;;
31206;SDS011;17834;52.992;8.856;2022-08-21T09:42:56;6.25;;;2.10;;
31206;SDS011;17834;52.992;8.856;2022-08-21T09:45:22;8.43;;;1.70;;
31206;SDS011;17834;52.992;8.856;2022-08-21T09:47:48;10.05;;;2.42;;
31206;SDS011;17834;52.992;8.856;2022-08-21T09:50:22;7.45;;;2.10;;
31206;SDS011;17834;52.992;8.856;2022-08-21T09:52:50;3.80;;;1.70;;
31206;SDS011;17834;52.992;8.856;2022-08-21T09:55:19;2.95;;;1.20;;
31206;SDS011;17834;52.992;8.856;2022-08-21T09:58:04;11.48;;;2.67;;
31206;SDS011;17834;52.992;8.856;2022-08-21T10:00:31;7.68;;;1.60;;
31206;SDS011;17834;52.992;8.856;2022-08-21T10:03:08;6.30;;;1.40;;
31206;SDS011;17834;52.992;8.856;2022-08-21T10:05:34;6.75;;;1.63;;
31206;SDS011;17834;52.992;8.856;2022-08-21T10:08:00;5.13;;;1.58;;
31206;SDS011;17834;52.992;8.856;2022-08-21T10:10:29;5.43;;;1.60;;
31206;SDS011;17834;52.992;8.856;2022-08-21T10:18:12;6.25;;;1.50;;
31206;SDS011;17834;52.992;8.856;2022-08-21T10:20:45;4.63;;;1.75;;
31206;SDS011;17834;52.992;8.856;2022-08-21T10:26:03;5.63;;;1.60;;
31206;SDS011;17834;52.992;8.856;2022-08-21T10:28:40;3.78;;;1.40;;
31206;SDS011;17834;52.992;8.856;2022-08-21T10:34:09;5.32;;;1.20;;
31206;SDS011;17834;52.992;8.856;2022-08-21T10:36:45;8.68;;;1.65;;
31206;SDS011;17834;52.992;8.856;2022-08-21T10:39:20;3.28;;;1.27;;
31206;SDS011;17834;52.992;8.856;2022-08-21T10:41:53;4.18;;;1.40;;
31206;SDS011;17834;52.992;8.856;2022-08-21T10:44:27;5.85;;;1.60;;
31206;SDS011;17834;52.992;8.856;2022-08-21T10:49:59;3.97;;;1.17;;
31206;SDS011;17834;52.992;8.856;2022-08-21T10:55:10;7.28;;;1.35;;
31206;SDS011;17834;52.992;8.856;2022-08-21T10:57:40;3.90;;;1.00;;
31206;SDS011;17834;52.992;8.856;2022-08-21T11:00:09;3.45;;;0.95;;
31206;SDS011;17834;52.992;8.856;2022-08-21T11:02:38;2.97;;;1.10;;
31206;SDS011;17834;52.992;8.856;2022-08-21T11:05:25;7.03;;;1.80;;
31206;SDS011;17834;52.992;8.856;2022-08-21T11:07:55;5.50;;;1.27;;
31206;SDS011;17834;52.992;8.856;2022-08-21T11:10:23;3.55;;;1.00;;
31206;SDS011;17834;52.992;8.856;2022-08-21T11:12:52;4.80;;;1.15;;
31206;SDS011;17834;52.992;8.856;2022-08-21T11:15:30;3.85;;;1.10;;
31206;SDS011;17834;52.992;8.856;2022-08-21T11:18:02;4.00;;;1.20;;
31206;SDS011;17834;52.992;8.856;2022-08-21T11:20:33;3.50;;;1.35;;
31206;SDS011;17834;52.992;8.856;2022-08-21T11:23:07;4.57;;;1.55;;
31206;SDS011;17834;52.992;8.856;2022-08-21T11:25:36;3.67;;;1.13;;
31206;SDS011;17834;52.992;8.856;2022-08-21T11:30:38;3.63;;;1.00;;
31206;SDS011;17834;52.992;8.856;2022-08-21T11:33:18;4.40;;;1.10;;
31206;SDS011;17834;52.992;8.856;2022-08-21T11:35:47;5.57;;;1.20;;
31206;SDS011;17834;52.992;8.856;2022-08-21T11:40:46;4.88;;;1.63;;
31206;SDS011;17834;52.992;8.856;2022-08-21T11:43:22;5.72;;;1.40;;
31206;SDS011;17834;52.992;8.856;2022-08-21T11:45:51;2.90;;;1.23;;
31206;SDS011;17834;52.992;8.856;2022-08-21T11:50:46;4.05;;;0.95;;
31206;SDS011;17834;52.992;8.856;2022-08-21T11:58:14;5.43;;;1.88;;
31206;SDS011;17834;52.992;8.856;2022-08-21T12:00:42;5.00;;;1.17;;
31206;SDS011;17834;52.992;8.856;2022-08-21T12:03:26;3.15;;;1.13;;
31206;SDS011;17834;52.992;8.856;2022-08-21T12:05:55;5.50;;;1.52;;
31206;SDS011;17834;52.992;8.856;2022-08-21T12:11:05;3.38;;;1.10;;
31206;SDS011;17834;52.992;8.856;2022-08-21T12:13:32;3.00;;;1.20;;
31206;SDS011;17834;52.992;8.856;2022-08-21T12:16:06;3.85;;;1.02;;
31206;SDS011;17834;52.992;8.856;2022-08-21T12:18:33;3.13;;;1.30;;
31206;SDS011;17834;52.992;8.856;2022-08-21T12:23:30;2.22;;;1.15;;
31206;SDS011;17834;52.992;8.856;2022-08-21T12:28:26;4.93;;;1.35;;
31206;SDS011;17834;52.992;8.856;2022-08-21T12:30:53;3.15;;;1.30;;
31206;SDS011;17834;52.992;8.856;2022-08-21T12:35:48;3.47;;;1.27;;
31206;SDS011;17834;52.992;8.856;2022-08-21T12:38:17;5.63;;;1.33;;
31206;SDS011;17834;52.992;8.856;2022-08-21T12:40:50;5.13;;;1.48;;
31206;SDS011;17834;52.992;8.856;2022-08-21T12:43:51;4.95;;;1.20;;
31206;SDS011;17834;52.992;8.856;2022-08-21T12:46:17;4.68;;;1.17;;
31206;SDS011;17834;52.992;8.856;2022-08-21T12:51:30;3.33;;;1.23;;
31206;SDS011;17834;52.992;8.856;2022-08-21T12:53:59;5.13;;;1.30;;
31206;SDS011;17834;52.992;8.856;2022-08-21T12:56:26;2.88;;;1.30;;
31206;SDS011;17834;52.992;8.856;2022-08-21T12:58:57;5.30;;;1.38;;
31206;SDS011;17834;52.992;8.856;2022-08-21T13:01:34;4.13;;;1.58;;
31206;SDS011;17834;52.992;8.856;2022-08-21T13:04:02;3.25;;;1.20;;
31206;SDS011;17834;52.992;8.856;2022-08-21T13:06:32;3.35;;;1.38;;
31206;SDS011;17834;52.992;8.856;2022-08-21T13:09:03;5.85;;;1.40;;
31206;SDS011;17834;52.992;8.856;2022-08-21T13:11:31;5.35;;;1.52;;
31206;SDS011;17834;52.992;8.856;2022-08-21T13:13:57;3.85;;;1.40;;
31206;SDS011;17834;52.992;8.856;2022-08-21T13:16:27;4.57;;;1.30;;
31206;SDS011;17834;52.992;8.856;2022-08-21T13:18:55;5.63;;;1.30;;
31206;SDS011;17834;52.992;8.856;2022-08-21T13:21:21;3.45;;;1.20;;
31206;SDS011;17834;52.992;8.856;2022-08-21T13:23:52;2.25;;;1.38;;
31206;SDS011;17834;52.992;8.856;2022-08-21T13:26:20;1.83;;;1.10;;
31206;SDS011;17834;52.992;8.856;2022-08-21T13:28:46;4.40;;;1.45;;
31206;SDS011;17834;52.992;8.856;2022-08-21T13:31:15;4.40;;;1.45;;
31206;SDS011;17834;52.992;8.856;2022-08-21T13:33:42;3.35;;;1.73;;
31206;SDS011;17834;52.992;8.856;2022-08-21T13:36:09;4.72;;;1.75;;
31206;SDS011;17834;52.992;8.856;2022-08-21T13:38:36;5.47;;;1.90;;
31206;SDS011;17834;52.992;8.856;2022-08-21T13:41:04;3.42;;;1.40;;
31206;SDS011;17834;52.992;8.856;2022-08-21T13:43:32;5.32;;;1.92;;
31206;SDS011;17834;52.992;8.856;2022-08-21T13:45:58;3.75;;;1.83;;
31206;SDS011;17834;52.992;8.856;2022-08-21T13:48:26;5.28;;;1.98;;
31206;SDS011;17834;52.992;8.856;2022-08-21T13:50:54;3.58;;;1.58;;
31206;SDS011;17834;52.992;8.856;2022-08-21T13:53:30;4.15;;;1.30;;
31206;SDS011;17834;52.992;8.856;2022-08-21T13:55:57;6.70;;;1.75;;
31206;SDS011;17834;52.992;8.856;2022-08-21T13:58:25;5.55;;;1.80;;
31206;SDS011;17834;52.992;8.856;2022-08-21T14:00:51;5.68;;;1.77;;
31206;SDS011;17834;52.992;8.856;2022-08-21T14:06:00;4.75;;;1.60;;
31206;SDS011;17834;52.992;8.856;2022-08-21T14:08:29;4.28;;;1.55;;
31206;SDS011;17834;52.992;8.856;2022-08-21T14:10:57;3.80;;;1.40;;
31206;SDS011;17834;52.992;8.856;2022-08-21T14:13:43;2.70;;;1.85;;
31206;SDS011;17834;52.992;8.856;2022-08-21T14:16:15;5.20;;;2.10;;
31206;SDS011;17834;52.992;8.856;2022-08-21T14:18:49;5.45;;;1.70;;
31206;SDS011;17834;52.992;8.856;2022-08-21T14:21:23;6.15;;;1.55;;
31206;SDS011;17834;52.992;8.856;2022-08-21T14:24:01;2.22;;;1.40;;
31206;SDS011;17834;52.992;8.856;2022-08-21T14:26:28;4.55;;;1.73;;
31206;SDS011;17834;52.992;8.856;2022-08-21T14:28:57;2.60;;;1.77;;
31206;SDS011;17834;52.992;8.856;2022-08-21T14:31:27;9.00;;;2.00;;
31206;SDS011;17834;52.992;8.856;2022-08-21T14:33:54;5.80;;;1.60;;
31206;SDS011;17834;52.992;8.856;2022-08-21T14:36:20;3.15;;;1.55;;
31206;SDS011;17834;52.992;8.856;2022-08-21T14:38:46;3.33;;;1.63;;
31206;SDS011;17834;52.992;8.856;2022-08-21T14:41:16;4.05;;;1.65;;
31206;SDS011;17834;52.992;8.856;2022-08-21T14:43:43;5.15;;;1.55;;
31206;SDS011;17834;52.992;8.856;2022-08-21T14:46:10;3.78;;;1.70;;
31206;SDS011;17834;52.992;8.856;2022-08-21T14:48:36;6.53;;;1.83;;
31206;SDS011;17834;52.992;8.856;2022-08-21T14:51:03;6.05;;;1.90;;
31206;SDS011;17834;52.992;8.856;2022-08-21T14:53:29;3.50;;;1.70;;
31206;SDS011;17834;52.992;8.856;2022-08-21T14:55:55;4.53;;;1.73;;
31206;SDS011;17834;52.992;8.856;2022-08-21T14:58:30;7.30;;;2.85;;
31206;SDS011;17834;52.992;8.856;2022-08-21T15:00:56;4.30;;;1.85;;
31206;SDS011;17834;52.992;8.856;2022-08-21T15:03:23;3.47;;;1.88;;
31206;SDS011;17834;52.992;8.856;2022-08-21T15:05:49;4.93;;;1.75;;
31206;SDS011;17834;52.992;8.856;2022-08-21T15:08:18;5.25;;;1.90;;
31206;SDS011;17834;52.992;8.856;2022-08-21T15:10:44;3.53;;;1.63;;
31206;SDS011;17834;52.992;8.856;2022-08-21T15:13:10;3.55;;;1.90;;
31206;SDS011;17834;52.992;8.856;2022-08-21T15:15:40;3.40;;;1.67;;
31206;SDS011;17834;52.992;8.856;2022-08-21T15:18:06;4.22;;;1.55;;
31206;SDS011;17834;52.992;8.856;2022-08-21T15:20:33;4.78;;;2.20;;
31206;SDS011;17834;52.992;8.856;2022-08-21T15:22:59;3.55;;;2.28;;
31206;SDS011;17834;52.992;8.856;2022-08-21T15:25:25;5.18;;;2.58;;
31206;SDS011;17834;52.992;8.856;2022-08-21T15:27:51;5.00;;;2.33;;
31206;SDS011;17834;52.992;8.856;2022-08-21T15:30:18;5.95;;;2.10;;
31206;SDS011;17834;52.992;8.856;2022-08-21T15:32:44;4.18;;;2.35;;
31206;SDS011;17834;52.992;8.856;2022-08-21T15:35:10;5.82;;;2.35;;
31206;SDS011;17834;52.992;8.856;2022-08-21T15:37:36;3.30;;;1.95;;
31206;SDS011;17834;52.992;8.856;2022-08-21T15:40:02;4.40;;;1.85;;
31206;SDS011;17834;52.992;8.856;2022-08-21T15:42:29;2.55;;;1.77;;
31206;SDS011;17834;52.992;8.856;2022-08-21T15:44:55;3.15;;;1.70;;
31206;SDS011;17834;52.992;8.856;2022-08-21T15:47:24;2.75;;;1.67;;
31206;SDS011;17834;52.992;8.856;2022-08-21T15:49:51;4.38;;;2.25;;
31206;SDS011;17834;52.992;8.856;2022-08-21T15:52:18;2.97;;;2.08;;
31206;SDS011;17834;52.992;8.856;2022-08-21T15:54:45;2.55;;;1.73;;